sensor_id;sensor_type;location;lat;lon;timestamp;pressure;altitude;pressure_sealevel;temperature;humidity
11523;BME280;40093;43.224;27.910;2023-02-22T00:00:33;100192.41;;;13.85;51.74
11523;BME280;40093;43.224;27.910;2023-02-22T00:03:09;100192.47;;;13.78;52.02
11523;BME280;40093;43.224;27.910;2023-02-22T00:05:37;100174.31;;;13.74;52.24
11523;BME280;40093;43.224;27.910;2023-02-22T00:08:06;100184.56;;;13.77;52.17
11523;BME280;40093;43.224;27.910;2023-02-22T00:10:36;100178.66;;;13.75;52.30
11523;BME280;40093;43.224;27.910;2023-02-22T00:13:05;100185.34;;;13.81;52.20
11523;BME280;40093;43.224;27.910;2023-02-22T00:15:33;100184.91;;;13.82;52.35
11523;BME280;40093;43.224;27.910;2023-02-22T00:18:01;100182.13;;;13.86;52.38
11523;BME280;40093;43.224;27.910;2023-02-22T00:20:29;100180.53;;;13.92;52.16
11523;BME280;40093;43.224;27.910;2023-02-22T00:22:55;100189.22;;;13.87;52.41
11523;BME280;40093;43.224;27.910;2023-02-22T00:25:27;100182.56;;;13.81;52.67
11523;BME280;40093;43.224;27.910;2023-02-22T00:27:53;100189.75;;;13.68;53.08
11523;BME280;40093;43.224;27.910;2023-02-22T00:30:25;100189.38;;;13.62;53.23
11523;BME280;40093;43.224;27.910;2023-02-22T00:32:53;100190.94;;;13.67;53.24
11523;BME280;40093;43.224;27.910;2023-02-22T00:35:22;100188.50;;;13.76;52.97
11523;BME280;40093;43.224;27.910;2023-02-22T00:37:50;100174.34;;;13.67;52.91
11523;BME280;40093;43.224;27.910;2023-02-22T00:40:19;100181.13;;;13.59;53.35
11523;BME280;40093;43.224;27.910;2023-02-22T00:42:48;100188.34;;;13.39;53.96
11523;BME280;40093;43.224;27.910;2023-02-22T00:45:17;100190.28;;;13.42;53.82
11523;BME280;40093;43.224;27.910;2023-02-22T00:47:44;100191.13;;;13.28;54.15
11523;BME280;40093;43.224;27.910;2023-02-22T00:50:12;100195.06;;;13.31;54.20
11523;BME280;40093;43.224;27.910;2023-02-22T00:52:39;100195.47;;;13.29;54.23
11523;BME280;40093;43.224;27.910;2023-02-22T00:55:08;100196.66;;;13.28;54.51
11523;BME280;40093;43.224;27.910;2023-02-22T00:57:35;100186.47;;;13.08;54.58
11523;BME280;40093;43.224;27.910;2023-02-22T01:00:06;100190.38;;;13.17;54.86
11523;BME280;40093;43.224;27.910;2023-02-22T01:02:37;100189.56;;;13.24;54.78
11523;BME280;40093;43.224;27.910;2023-02-22T01:05:05;100179.31;;;13.21;54.86
11523;BME280;40093;43.224;27.910;2023-02-22T01:07:32;100180.53;;;13.13;55.23
11523;BME280;40093;43.224;27.910;2023-02-22T01:09:59;100187.63;;;13.17;55.16
11523;BME280;40093;43.224;27.910;2023-02-22T01:12:26;100188.41;;;13.18;55.37
11523;BME280;40093;43.224;27.910;2023-02-22T01:14:53;100189.63;;;13.10;55.54
11523;BME280;40093;43.224;27.910;2023-02-22T01:17:22;100190.38;;;13.24;55.44
11523;BME280;40093;43.224;27.910;2023-02-22T01:19:49;100179.31;;;13.17;55.40
11523;BME280;40093;43.224;27.910;2023-02-22T01:22:16;100177.00;;;13.09;55.51
11523;BME280;40093;43.224;27.910;2023-02-22T01:24:44;100186.81;;;13.24;55.63
11523;BME280;40093;43.224;27.910;2023-02-22T01:27:11;100192.75;;;13.19;55.60
11523;BME280;40093;43.224;27.910;2023-02-22T01:29:38;100185.28;;;13.09;56.03
11523;BME280;40093;43.224;27.910;2023-02-22T01:32:06;100186.03;;;13.20;56.12
11523;BME280;40093;43.224;27.910;2023-02-22T01:34:34;100179.75;;;13.16;56.10
11523;BME280;40093;43.224;27.910;2023-02-22T01:37:01;100179.75;;;13.09;56.44
11523;BME280;40093;43.224;27.910;2023-02-22T01:39:28;100169.09;;;13.14;56.54
11523;BME280;40093;43.224;27.910;2023-02-22T01:41:55;100180.94;;;13.15;56.37
11523;BME280;40093;43.224;27.910;2023-02-22T01:44:26;100172.19;;;13.27;56.35
11523;BME280;40093;43.224;27.910;2023-02-22T01:46:54;100180.88;;;13.29;56.13
11523;BME280;40093;43.224;27.910;2023-02-22T01:49:22;100185.66;;;13.21;56.41
11523;BME280;40093;43.224;27.910;2023-02-22T01:51:53;100187.22;;;13.26;56.54
11523;BME280;40093;43.224;27.910;2023-02-22T01:54:24;100182.81;;;13.32;56.30
11523;BME280;40093;43.224;27.910;2023-02-22T01:56:56;100174.50;;;13.39;56.31
11523;BME280;40093;43.224;27.910;2023-02-22T01:59:28;100185.09;;;13.51;55.98
11523;BME280;40093;43.224;27.910;2023-02-22T02:01:58;100185.88;;;13.55;55.90
11523;BME280;40093;43.224;27.910;2023-02-22T02:04:26;100182.31;;;13.58;55.82
11523;BME280;40093;43.224;27.910;2023-02-22T02:06:57;100183.88;;;13.59;55.95
11523;BME280;40093;43.224;27.910;2023-02-22T02:09:31;100181.91;;;13.56;56.18
11523;BME280;40093;43.224;27.910;2023-02-22T02:12:00;100183.91;;;13.52;56.22
11523;BME280;40093;43.224;27.910;2023-02-22T02:14:30;100181.97;;;13.49;56.22
11523;BME280;40093;43.224;27.910;2023-02-22T02:16:58;100188.63;;;13.55;56.09
11523;BME280;40093;43.224;27.910;2023-02-22T02:19:35;100198.50;;;13.56;56.24
11523;BME280;40093;43.224;27.910;2023-02-22T02:22:35;100198.91;;;13.58;56.37
11523;BME280;40093;43.224;27.910;2023-02-22T02:28:50;100206.75;;;13.63;56.35
11523;BME280;40093;43.224;27.910;2023-02-22T02:31:38;100205.56;;;13.64;56.43
11523;BME280;40093;43.224;27.910;2023-02-22T02:34:11;100209.53;;;13.63;56.75
11523;BME280;40093;43.224;27.910;2023-02-22T02:36:47;100205.56;;;13.64;56.98
11523;BME280;40093;43.224;27.910;2023-02-22T02:39:19;100207.56;;;13.63;57.04
11523;BME280;40093;43.224;27.910;2023-02-22T02:41:50;100214.69;;;13.61;57.26
11523;BME280;40093;43.224;27.910;2023-02-22T02:44:23;100206.78;;;13.56;57.18
11523;BME280;40093;43.224;27.910;2023-02-22T02:46:55;100217.84;;;13.56;57.53
11523;BME280;40093;43.224;27.910;2023-02-22T02:49:30;100217.47;;;13.54;57.66
11523;BME280;40093;43.224;27.910;2023-02-22T02:52:02;100223.38;;;13.56;57.75
11523;BME280;40093;43.224;27.910;2023-02-22T02:54:30;100215.13;;;13.49;58.03
11523;BME280;40093;43.224;27.910;2023-02-22T02:56:58;100221.06;;;13.40;58.23
11523;BME280;40093;43.224;27.910;2023-02-22T02:59:27;100219.50;;;13.43;58.06
11523;BME280;40093;43.224;27.910;2023-02-22T03:02:02;100192.75;;;13.22;58.09
11523;BME280;40093;43.224;27.910;2023-02-22T03:04:52;100221.16;;;13.26;58.54
11523;BME280;40093;43.224;27.910;2023-02-22T03:07:32;100223.16;;;13.19;58.87
11523;BME280;40093;43.224;27.910;2023-02-22T03:10:29;100205.88;;;12.94;59.57
11523;BME280;40093;43.224;27.910;2023-02-22T03:13:09;100232.69;;;12.97;59.84
11523;BME280;40093;43.224;27.910;2023-02-22T03:15:47;100225.19;;;12.94;60.02
11523;BME280;40093;43.224;27.910;2023-02-22T03:18:20;100233.47;;;12.87;60.34
11523;BME280;40093;43.224;27.910;2023-02-22T03:20:59;100229.13;;;12.79;60.40
11523;BME280;40093;43.224;27.910;2023-02-22T03:23:31;100238.22;;;12.79;60.53
11523;BME280;40093;43.224;27.910;2023-02-22T03:26:03;100231.09;;;12.85;60.43
11523;BME280;40093;43.224;27.910;2023-02-22T03:28:32;100234.22;;;12.91;60.60
11523;BME280;40093;43.224;27.910;2023-02-22T03:31:04;100240.94;;;12.90;60.47
11523;BME280;40093;43.224;27.910;2023-02-22T03:33:39;100234.66;;;12.86;60.64
11523;BME280;40093;43.224;27.910;2023-02-22T03:36:13;100239.38;;;12.89;60.59
11523;BME280;40093;43.224;27.910;2023-02-22T03:38:43;100226.38;;;12.75;60.68
11523;BME280;40093;43.224;27.910;2023-02-22T03:41:13;100242.94;;;12.72;61.37
11523;BME280;40093;43.224;27.910;2023-02-22T03:43:44;100244.13;;;12.71;61.45
11523;BME280;40093;43.224;27.910;2023-02-22T03:46:13;100243.34;;;12.74;61.56
11523;BME280;40093;43.224;27.910;2023-02-22T03:48:45;100247.69;;;12.71;61.40
11523;BME280;40093;43.224;27.910;2023-02-22T03:51:16;100242.16;;;12.68;61.43
11523;BME280;40093;43.224;27.910;2023-02-22T03:53:43;100247.28;;;12.55;61.69
11523;BME280;40093;43.224;27.910;2023-02-22T03:56:15;100242.97;;;12.44;62.06
11523;BME280;40093;43.224;27.910;2023-02-22T03:58:46;100244.13;;;12.32;62.44
11523;BME280;40093;43.224;27.910;2023-02-22T04:01:14;100240.19;;;12.27;62.72
11523;BME280;40093;43.224;27.910;2023-02-22T04:03:41;100240.97;;;12.20;62.87
11523;BME280;40093;43.224;27.910;2023-02-22T04:06:08;100240.59;;;12.15;63.28
11523;BME280;40093;43.224;27.910;2023-02-22T04:08:36;100242.91;;;12.02;63.32
11523;BME280;40093;43.224;27.910;2023-02-22T04:11:03;100238.97;;;11.93;63.73
11523;BME280;40093;43.224;27.910;2023-02-22T04:13:30;100226.75;;;11.90;64.13
11523;BME280;40093;43.224;27.910;2023-02-22T04:15:57;100232.25;;;11.83;64.26
11523;BME280;40093;43.224;27.910;2023-02-22T04:18:24;100224.38;;;11.78;64.71
11523;BME280;40093;43.224;27.910;2023-02-22T04:20:51;100228.31;;;11.77;65.11
11523;BME280;40093;43.224;27.910;2023-02-22T04:23:18;100229.06;;;11.78;64.98
11523;BME280;40093;43.224;27.910;2023-02-22T04:25:46;100225.94;;;11.76;65.10
11523;BME280;40093;43.224;27.910;2023-02-22T04:28:13;100220.78;;;11.74;65.46
11523;BME280;40093;43.224;27.910;2023-02-22T04:30:40;100223.13;;;11.69;65.85
11523;BME280;40093;43.224;27.910;2023-02-22T04:33:08;100236.84;;;11.51;66.73
11523;BME280;40093;43.224;27.910;2023-02-22T04:35:36;100233.34;;;11.58;66.79
11523;BME280;40093;43.224;27.910;2023-02-22T04:38:03;100231.81;;;11.67;67.21
11523;BME280;40093;43.224;27.910;2023-02-22T04:40:31;100247.94;;;11.69;66.64
11523;BME280;40093;43.224;27.910;2023-02-22T04:42:59;100225.50;;;11.70;66.80
11523;BME280;40093;43.224;27.910;2023-02-22T04:45:26;100244.47;;;11.89;66.17
11523;BME280;40093;43.224;27.910;2023-02-22T04:47:53;100246.88;;;12.01;65.67
11523;BME280;40093;43.224;27.910;2023-02-22T04:50:20;100248.03;;;12.11;65.43
11523;BME280;40093;43.224;27.910;2023-02-22T04:52:48;100226.75;;;12.01;64.91
11523;BME280;40093;43.224;27.910;2023-02-22T04:55:15;100253.19;;;12.30;64.67
11523;BME280;40093;43.224;27.910;2023-02-22T04:57:43;100252.41;;;12.36;64.41
11523;BME280;40093;43.224;27.910;2023-02-22T05:00:15;100252.03;;;12.41;64.28
11523;BME280;40093;43.224;27.910;2023-02-22T05:02:42;100252.03;;;12.41;63.77
11523;BME280;40093;43.224;27.910;2023-02-22T05:05:09;100244.13;;;12.36;63.96
11523;BME280;40093;43.224;27.910;2023-02-22T05:07:36;100244.13;;;12.36;64.11
11523;BME280;40093;43.224;27.910;2023-02-22T05:10:03;100254.38;;;12.42;64.38
11523;BME280;40093;43.224;27.910;2023-02-22T05:12:30;100254.78;;;12.48;64.07
11523;BME280;40093;43.224;27.910;2023-02-22T05:14:57;100252.44;;;12.46;63.95
11523;BME280;40093;43.224;27.910;2023-02-22T05:17:25;100262.28;;;12.51;64.01
11523;BME280;40093;43.224;27.910;2023-02-22T05:19:52;100269.38;;;12.55;64.00
11523;BME280;40093;43.224;27.910;2023-02-22T05:22:20;100271.75;;;12.60;63.89
11523;BME280;40093;43.224;27.910;2023-02-22T05:24:48;100285.94;;;12.66;63.86
11523;BME280;40093;43.224;27.910;2023-02-22T05:27:17;100280.44;;;12.73;63.56
11523;BME280;40093;43.224;27.910;2023-02-22T05:29:44;100291.06;;;12.78;63.81
11523;BME280;40093;43.224;27.910;2023-02-22T05:32:11;100278.81;;;12.79;63.43
11523;BME280;40093;43.224;27.910;2023-02-22T05:34:40;100293.81;;;12.92;63.27
11523;BME280;40093;43.224;27.910;2023-02-22T05:37:07;100290.28;;;12.98;62.92
11523;BME280;40093;43.224;27.910;2023-02-22T05:39:33;100295.41;;;13.07;62.75
11523;BME280;40093;43.224;27.910;2023-02-22T05:42:00;100297.75;;;13.12;62.69
11523;BME280;40093;43.224;27.910;2023-02-22T05:44:27;100297.75;;;13.15;62.77
11523;BME280;40093;43.224;27.910;2023-02-22T05:46:54;100304.84;;;13.27;62.23
11523;BME280;40093;43.224;27.910;2023-02-22T05:49:21;100310.34;;;13.41;62.97
11523;BME280;40093;43.224;27.910;2023-02-22T05:51:49;100312.63;;;13.63;63.29
11523;BME280;40093;43.224;27.910;2023-02-22T05:54:16;100322.78;;;13.91;61.84
11523;BME280;40093;43.224;27.910;2023-02-22T05:56:43;100318.69;;;14.20;60.28
11523;BME280;40093;43.224;27.910;2023-02-22T05:59:09;100326.00;;;14.54;59.15
11523;BME280;40093;43.224;27.910;2023-02-22T06:01:36;100325.34;;;14.87;58.04
11523;BME280;40093;43.224;27.910;2023-02-22T06:04:03;100328.63;;;15.15;56.99
11523;BME280;40093;43.224;27.910;2023-02-22T06:06:30;100321.66;;;15.44;55.92
11523;BME280;40093;43.224;27.910;2023-02-22T06:08:58;100326.53;;;15.70;55.08
11523;BME280;40093;43.224;27.910;2023-02-22T06:11:25;100332.81;;;16.04;53.98
11523;BME280;40093;43.224;27.910;2023-02-22T06:13:52;100332.50;;;16.29;53.31
11523;BME280;40093;43.224;27.910;2023-02-22T06:16:20;100336.97;;;16.49;52.80
11523;BME280;40093;43.224;27.910;2023-02-22T06:18:48;100343.13;;;16.64;52.41
11523;BME280;40093;43.224;27.910;2023-02-22T06:21:16;100351.59;;;16.80;51.61
11523;BME280;40093;43.224;27.910;2023-02-22T06:23:44;100344.66;;;16.91;51.54
11523;BME280;40093;43.224;27.910;2023-02-22T06:26:14;100351.53;;;17.06;50.68
11523;BME280;40093;43.224;27.910;2023-02-22T06:28:42;100349.13;;;16.85;50.90
11523;BME280;40093;43.224;27.910;2023-02-22T06:31:09;100362.34;;;17.01;51.22
11523;BME280;40093;43.224;27.910;2023-02-22T06:33:35;100344.31;;;17.12;50.71
11523;BME280;40093;43.224;27.910;2023-02-22T06:36:03;100355.53;;;17.05;50.77
11523;BME280;40093;43.224;27.910;2023-02-22T06:38:30;100353.25;;;17.23;50.49
11523;BME280;40093;43.224;27.910;2023-02-22T06:40:58;100353.13;;;17.30;50.21
11523;BME280;40093;43.224;27.910;2023-02-22T06:43:26;100343.56;;;17.54;49.37
11523;BME280;40093;43.224;27.910;2023-02-22T06:45:53;100359.00;;;17.59;49.28
11523;BME280;40093;43.224;27.910;2023-02-22T06:48:19;100355.06;;;17.56;48.39
11523;BME280;40093;43.224;27.910;2023-02-22T06:50:46;100351.78;;;17.80;47.39
11523;BME280;40093;43.224;27.910;2023-02-22T06:53:13;100357.19;;;17.68;47.42
11523;BME280;40093;43.224;27.910;2023-02-22T06:55:40;100357.53;;;17.51;47.72
11523;BME280;40093;43.224;27.910;2023-02-22T06:58:07;100355.13;;;17.72;47.21
11523;BME280;40093;43.224;27.910;2023-02-22T07:00:35;100356.00;;;17.88;47.07
11523;BME280;40093;43.224;27.910;2023-02-22T07:03:03;100352.13;;;18.02;46.42
11523;BME280;40093;43.224;27.910;2023-02-22T07:05:30;100349.50;;;17.95;46.99
11523;BME280;40093;43.224;27.910;2023-02-22T07:08:02;100350.34;;;17.92;46.13
11523;BME280;40093;43.224;27.910;2023-02-22T07:10:30;100356.63;;;18.15;45.91
11523;BME280;40093;43.224;27.910;2023-02-22T07:12:58;100353.69;;;18.42;45.19
11523;BME280;40093;43.224;27.910;2023-02-22T07:15:26;100354.97;;;18.37;45.19
11523;BME280;40093;43.224;27.910;2023-02-22T07:17:55;100360.34;;;18.48;44.53
11523;BME280;40093;43.224;27.910;2023-02-22T07:20:24;100356.00;;;18.63;44.49
11523;BME280;40093;43.224;27.910;2023-02-22T07:22:51;100364.88;;;18.74;44.40
11523;BME280;40093;43.224;27.910;2023-02-22T07:25:19;100365.31;;;18.72;44.30
11523;BME280;40093;43.224;27.910;2023-02-22T07:27:46;100352.59;;;18.71;44.16
11523;BME280;40093;43.224;27.910;2023-02-22T07:30:19;100357.13;;;18.81;43.96
11523;BME280;40093;43.224;27.910;2023-02-22T07:32:50;100347.63;;;18.79;43.26
11523;BME280;40093;43.224;27.910;2023-02-22T07:35:23;100348.16;;;18.74;43.52
11523;BME280;40093;43.224;27.910;2023-02-22T07:37:50;100350.56;;;18.56;43.61
11523;BME280;40093;43.224;27.910;2023-02-22T07:40:17;100339.53;;;18.52;43.83
11523;BME280;40093;43.224;27.910;2023-02-22T07:42:52;100338.94;;;18.61;43.48
11523;BME280;40093;43.224;27.910;2023-02-22T07:45:20;100343.81;;;18.73;43.52
11523;BME280;40093;43.224;27.910;2023-02-22T07:47:47;100334.91;;;18.78;43.12
11523;BME280;40093;43.224;27.910;2023-02-22T07:50:15;100341.19;;;18.98;42.99
11523;BME280;40093;43.224;27.910;2023-02-22T07:52:46;100349.06;;;19.03;43.11
11523;BME280;40093;43.224;27.910;2023-02-22T07:55:13;100346.25;;;19.03;43.08
11523;BME280;40093;43.224;27.910;2023-02-22T07:57:42;100344.41;;;18.64;43.59
11523;BME280;40093;43.224;27.910;2023-02-22T08:00:11;100346.06;;;19.10;43.04
11523;BME280;40093;43.224;27.910;2023-02-22T08:02:39;100343.38;;;19.06;42.53
11523;BME280;40093;43.224;27.910;2023-02-22T08:05:07;100340.97;;;18.41;43.94
11523;BME280;40093;43.224;27.910;2023-02-22T08:07:35;100345.94;;;18.33;44.07
11523;BME280;40093;43.224;27.910;2023-02-22T08:10:04;100352.13;;;18.41;44.08
11523;BME280;40093;43.224;27.910;2023-02-22T08:12:32;100356.75;;;18.28;44.62
11523;BME280;40093;43.224;27.910;2023-02-22T08:14:59;100344.50;;;18.77;44.00
11523;BME280;40093;43.224;27.910;2023-02-22T08:17:26;100346.78;;;18.98;43.30
11523;BME280;40093;43.224;27.910;2023-02-22T08:19:53;100324.13;;;18.96;42.97
11523;BME280;40093;43.224;27.910;2023-02-22T08:22:20;100344.34;;;19.16;42.40
11523;BME280;40093;43.224;27.910;2023-02-22T08:24:47;100342.06;;;18.95;42.63
11523;BME280;40093;43.224;27.910;2023-02-22T08:27:15;100343.66;;;19.12;42.56
11523;BME280;40093;43.224;27.910;2023-02-22T08:29:42;100343.38;;;19.22;42.37
11523;BME280;40093;43.224;27.910;2023-02-22T08:32:09;100335.38;;;19.24;42.04
11523;BME280;40093;43.224;27.910;2023-02-22T08:34:37;100335.28;;;19.28;41.91
11523;BME280;40093;43.224;27.910;2023-02-22T08:37:05;100328.63;;;19.38;41.60
11523;BME280;40093;43.224;27.910;2023-02-22T08:39:32;100328.22;;;19.39;41.68
11523;BME280;40093;43.224;27.910;2023-02-22T08:42:00;100340.47;;;19.42;41.49
11523;BME280;40093;43.224;27.910;2023-02-22T08:44:28;100330.88;;;19.43;41.44
11523;BME280;40093;43.224;27.910;2023-02-22T08:46:56;100339.06;;;19.50;41.56
11523;BME280;40093;43.224;27.910;2023-02-22T08:49:23;100346.56;;;19.53;41.26
11523;BME280;40093;43.224;27.910;2023-02-22T08:51:49;100340.59;;;19.38;41.68
11523;BME280;40093;43.224;27.910;2023-02-22T08:54:16;100338.16;;;19.40;41.54
11523;BME280;40093;43.224;27.910;2023-02-22T08:56:43;100341.94;;;19.46;41.43
11523;BME280;40093;43.224;27.910;2023-02-22T08:59:10;100340.44;;;19.58;41.16
11523;BME280;40093;43.224;27.910;2023-02-22T09:01:38;100340.88;;;19.56;40.88
11523;BME280;40093;43.224;27.910;2023-02-22T09:04:06;100357.88;;;19.62;41.29
11523;BME280;40093;43.224;27.910;2023-02-22T09:06:33;100350.56;;;19.52;41.42
11523;BME280;40093;43.224;27.910;2023-02-22T09:09:00;100353.13;;;19.46;41.56
11523;BME280;40093;43.224;27.910;2023-02-22T09:11:27;100354.69;;;19.47;41.64
11523;BME280;40093;43.224;27.910;2023-02-22T09:13:54;100352.69;;;19.48;41.55
11523;BME280;40093;43.224;27.910;2023-02-22T09:16:21;100348.34;;;19.15;42.65
11523;BME280;40093;43.224;27.910;2023-02-22T09:18:49;100357.94;;;18.98;43.52
11523;BME280;40093;43.224;27.910;2023-02-22T09:21:16;100359.84;;;18.85;43.40
11523;BME280;40093;43.224;27.910;2023-02-22T09:23:45;100359.16;;;18.81;43.49
11523;BME280;40093;43.224;27.910;2023-02-22T09:26:12;100370.66;;;18.83;43.63
11523;BME280;40093;43.224;27.910;2023-02-22T09:28:40;100365.66;;;18.58;44.90
11523;BME280;40093;43.224;27.910;2023-02-22T09:31:07;100364.13;;;18.38;45.72
11523;BME280;40093;43.224;27.910;2023-02-22T09:33:34;100358.84;;;18.43;45.96
11523;BME280;40093;43.224;27.910;2023-02-22T09:36:03;100364.91;;;18.38;45.18
11523;BME280;40093;43.224;27.910;2023-02-22T09:38:31;100361.19;;;18.45;45.23
11523;BME280;40093;43.224;27.910;2023-02-22T09:41:09;100368.31;;;18.46;44.96
11523;BME280;40093;43.224;27.910;2023-02-22T09:43:44;100366.19;;;18.34;45.45
11523;BME280;40093;43.224;27.910;2023-02-22T09:46:22;100369.25;;;18.39;45.78
11523;BME280;40093;43.224;27.910;2023-02-22T09:49:04;100361.91;;;18.49;45.43
11523;BME280;40093;43.224;27.910;2023-02-22T09:51:39;100339.31;;;18.24;45.15
11523;BME280;40093;43.224;27.910;2023-02-22T09:54:15;100359.34;;;18.19;45.03
11523;BME280;40093;43.224;27.910;2023-02-22T09:56:45;100367.34;;;18.17;45.40
11523;BME280;40093;43.224;27.910;2023-02-22T09:59:16;100370.78;;;18.05;45.63
11523;BME280;40093;43.224;27.910;2023-02-22T10:01:48;100372.06;;;18.00;46.18
11523;BME280;40093;43.224;27.910;2023-02-22T10:04:21;100366.78;;;18.06;46.57
11523;BME280;40093;43.224;27.910;2023-02-22T10:07:14;100356.91;;;18.21;47.09
11523;BME280;40093;43.224;27.910;2023-02-22T10:09:44;100364.41;;;18.43;46.94
11523;BME280;40093;43.224;27.910;2023-02-22T10:12:22;100356.88;;;18.60;46.70
11523;BME280;40093;43.224;27.910;2023-02-22T10:15:14;100346.94;;;18.75;45.93
11523;BME280;40093;43.224;27.910;2023-02-22T10:17:52;100337.13;;;18.86;45.36
11523;BME280;40093;43.224;27.910;2023-02-22T10:20:36;100350.78;;;18.81;44.40
11523;BME280;40093;43.224;27.910;2023-02-22T10:23:14;100341.09;;;18.53;46.02
11523;BME280;40093;43.224;27.910;2023-02-22T10:25:44;100344.66;;;18.54;45.80
11523;BME280;40093;43.224;27.910;2023-02-22T10:28:18;100343.50;;;18.51;46.26
11523;BME280;40093;43.224;27.910;2023-02-22T10:30:50;100342.22;;;18.56;46.22
11523;BME280;40093;43.224;27.910;2023-02-22T10:33:22;100339.09;;;18.70;46.16
11523;BME280;40093;43.224;27.910;2023-02-22T10:35:51;100341.38;;;18.75;45.73
11523;BME280;40093;43.224;27.910;2023-02-22T10:38:21;100333.00;;;18.59;46.08
11523;BME280;40093;43.224;27.910;2023-02-22T10:40:52;100328.91;;;18.28;45.80
11523;BME280;40093;43.224;27.910;2023-02-22T10:43:21;100323.38;;;17.89;46.60
11523;BME280;40093;43.224;27.910;2023-02-22T10:45:51;100334.28;;;17.80;47.41
11523;BME280;40093;43.224;27.910;2023-02-22T10:48:23;100319.22;;;17.58;48.16
11523;BME280;40093;43.224;27.910;2023-02-22T10:50:51;100330.47;;;17.74;48.08
11523;BME280;40093;43.224;27.910;2023-02-22T10:53:21;100320.09;;;17.55;48.41
11523;BME280;40093;43.224;27.910;2023-02-22T10:56:10;100342.06;;;17.69;48.54
11523;BME280;40093;43.224;27.910;2023-02-22T10:58:49;100329.72;;;17.70;48.83
11523;BME280;40093;43.224;27.910;2023-02-22T11:01:19;100325.59;;;17.78;48.66
11523;BME280;40093;43.224;27.910;2023-02-22T11:03:56;100328.09;;;17.72;48.07
11523;BME280;40093;43.224;27.910;2023-02-22T11:06:23;100323.28;;;17.54;48.55
11523;BME280;40093;43.224;27.910;2023-02-22T11:09:03;100318.19;;;17.71;48.80
11523;BME280;40093;43.224;27.910;2023-02-22T11:11:32;100307.91;;;17.68;48.83
11523;BME280;40093;43.224;27.910;2023-02-22T11:13:59;100321.44;;;17.66;49.86
11523;BME280;40093;43.224;27.910;2023-02-22T11:16:30;100311.41;;;17.53;50.10
11523;BME280;40093;43.224;27.910;2023-02-22T11:19:02;100321.78;;;17.49;51.05
11523;BME280;40093;43.224;27.910;2023-02-22T11:21:34;100327.97;;;17.37;51.65
11523;BME280;40093;43.224;27.910;2023-02-22T11:24:05;100312.97;;;17.08;53.08
11523;BME280;40093;43.224;27.910;2023-02-22T11:26:39;100326.78;;;16.92;54.54
11523;BME280;40093;43.224;27.910;2023-02-22T11:29:18;100327.31;;;17.07;53.94
11523;BME280;40093;43.224;27.910;2023-02-22T11:31:47;100313.47;;;17.03;53.75
11523;BME280;40093;43.224;27.910;2023-02-22T11:34:27;100343.81;;;17.17;54.26
11523;BME280;40093;43.224;27.910;2023-02-22T11:36:56;100325.00;;;17.02;54.06
11523;BME280;40093;43.224;27.910;2023-02-22T11:39:41;100331.63;;;16.88;55.70
11523;BME280;40093;43.224;27.910;2023-02-22T11:42:21;100336.13;;;17.02;56.41
11523;BME280;40093;43.224;27.910;2023-02-22T11:45:07;100330.09;;;16.84;55.47
11523;BME280;40093;43.224;27.910;2023-02-22T11:47:34;100337.25;;;16.58;55.25
11523;BME280;40093;43.224;27.910;2023-02-22T11:50:09;100341.75;;;16.49;55.62
11523;BME280;40093;43.224;27.910;2023-02-22T11:52:45;100332.53;;;16.25;55.88
11523;BME280;40093;43.224;27.910;2023-02-22T11:55:18;100333.34;;;16.22;55.71
11523;BME280;40093;43.224;27.910;2023-02-22T11:57:57;100340.78;;;16.02;55.38
11523;BME280;40093;43.224;27.910;2023-02-22T12:00:32;100348.03;;;15.93;53.89
11523;BME280;40093;43.224;27.910;2023-02-22T12:03:16;100351.38;;;15.77;53.89
11523;BME280;40093;43.224;27.910;2023-02-22T12:06:08;100360.16;;;15.76;53.23
11523;BME280;40093;43.224;27.910;2023-02-22T12:08:48;100338.03;;;15.69;53.53
11523;BME280;40093;43.224;27.910;2023-02-22T12:11:22;100344.50;;;15.55;53.89
11523;BME280;40093;43.224;27.910;2023-02-22T12:14:00;100326.63;;;15.19;54.10
11523;BME280;40093;43.224;27.910;2023-02-22T12:16:39;100355.94;;;15.20;54.45
11523;BME280;40093;43.224;27.910;2023-02-22T12:19:14;100367.22;;;14.99;54.04
11523;BME280;40093;43.224;27.910;2023-02-22T12:21:52;100343.03;;;15.00;54.56
11523;BME280;40093;43.224;27.910;2023-02-22T12:24:22;100338.47;;;15.23;54.28
11523;BME280;40093;43.224;27.910;2023-02-22T12:26:54;100351.13;;;15.24;53.71
11523;BME280;40093;43.224;27.910;2023-02-22T12:29:27;100335.22;;;15.35;53.65
11523;BME280;40093;43.224;27.910;2023-02-22T12:32:01;100343.16;;;15.33;53.53
11523;BME280;40093;43.224;27.910;2023-02-22T12:34:33;100346.97;;;15.46;53.20
11523;BME280;40093;43.224;27.910;2023-02-22T12:37:10;100354.97;;;15.41;53.07
11523;BME280;40093;43.224;27.910;2023-02-22T12:39:45;100351.88;;;15.32;53.99
11523;BME280;40093;43.224;27.910;2023-02-22T12:42:21;100353.06;;;15.27;54.03
11523;BME280;40093;43.224;27.910;2023-02-22T12:44:54;100345.34;;;15.08;53.68
11523;BME280;40093;43.224;27.910;2023-02-22T12:47:30;100346.59;;;15.00;53.61
11523;BME280;40093;43.224;27.910;2023-02-22T12:50:04;100360.47;;;15.00;54.13
11523;BME280;40093;43.224;27.910;2023-02-22T12:52:41;100352.19;;;14.93;54.64
11523;BME280;40093;43.224;27.910;2023-02-22T12:55:15;100375.22;;;14.84;54.91
11523;BME280;40093;43.224;27.910;2023-02-22T12:57:48;100378.13;;;14.66;54.63
11523;BME280;40093;43.224;27.910;2023-02-22T13:00:20;100384.97;;;14.48;54.11